Time;durP1;ratioP1;P1;durP2;ratioP2;P2;SDS_P1;SDS_P2;PMS_P1;PMS_P2;Temp;Humidity;BMP_temperature;BMP_pressure;BME280_temperature;BME280_humidity;BME280_pressure;Samples;Min_cycle;Max_cycle;Signal;HPM_P1;HPM_P2
2021/07/14 00:00:19;;;;;;;49.28;36.60;;;19.70;99.90;;;;;;5094471;28;20040;-67
2021/07/14 00:02:48;;;;;;;58.90;39.38;;;19.70;99.90;;;;;;5092870;28;20036;-68
2021/07/14 00:05:18;;;;;;;61.05;39.92;;;19.70;99.90;;;;;;5094496;28;20048;-67
2021/07/14 00:07:44;;;;;;;61.65;40.42;;;19.70;99.90;;;;;;5094387;28;20524;-66
2021/07/14 00:10:13;;;;;;;59.83;39.97;;;19.70;99.90;;;;;;5094005;28;20040;-67
2021/07/14 00:13:01;;;;;;;55.17;38.00;;;19.70;99.90;;;;;;5094570;28;20113;-67
2021/07/14 00:23:10;;;;;;;63.72;38.45;;;19.70;99.90;;;;;;5088264;28;20055;-67
2021/07/14 00:25:36;;;;;;;59.42;35.50;;;19.60;99.90;;;;;;5093943;28;20392;-66
2021/07/14 00:28:02;;;;;;;56.85;35.10;;;19.50;99.90;;;;;;5094107;28;20085;-67
2021/07/14 00:30:30;;;;;;;56.83;35.85;;;19.50;99.90;;;;;;5093444;28;20044;-66
2021/07/14 00:32:55;;;;;;;63.97;36.95;;;19.50;99.90;;;;;;5081026;28;20029;-67
2021/07/14 00:35:21;;;;;;;61.67;35.55;;;19.50;99.90;;;;;;5076244;28;20042;-67
2021/07/14 00:37:47;;;;;;;62.30;36.33;;;19.40;99.90;;;;;;5094077;28;20036;-66
2021/07/14 00:40:13;;;;;;;55.70;35.63;;;19.40;99.90;;;;;;5092595;28;20042;-67
2021/07/14 00:42:39;;;;;;;52.03;34.47;;;19.40;99.90;;;;;;5093583;28;20074;-67
2021/07/14 00:45:07;;;;;;;61.08;36.50;;;19.40;99.90;;;;;;5093812;28;20097;-66
2021/07/14 00:47:35;;;;;;;57.60;37.60;;;19.40;99.90;;;;;;5093312;28;20070;-67
2021/07/14 00:50:03;;;;;;;59.72;38.05;;;19.40;99.90;;;;;;5093721;28;20536;-67
2021/07/14 00:52:29;;;;;;;58.72;36.10;;;19.40;99.90;;;;;;5091537;28;20067;-66
2021/07/14 00:54:57;;;;;;;60.08;38.20;;;19.40;99.90;;;;;;5092763;28;20461;-66
2021/07/14 00:57:26;;;;;;;60.95;38.85;;;19.40;99.90;;;;;;5093692;28;20647;-67
2021/07/14 00:59:52;;;;;;;67.90;41.95;;;19.40;99.90;;;;;;5093451;28;20046;-67
2021/07/14 01:02:17;;;;;;;63.28;42.55;;;19.40;99.90;;;;;;5093211;28;20531;-66
2021/07/14 01:04:49;;;;;;;48.05;35.38;;;19.30;99.90;;;;;;5093314;28;20501;-66
2021/07/14 01:07:21;;;;;;;;;;;19.30;99.90;;;;;;5100463;28;20431;-66
2021/07/14 01:09:58;;;;;;;58.03;40.08;;;19.30;99.90;;;;;;5093155;28;19942;-67
2021/07/14 01:12:52;;;;;;;59.55;41.00;;;19.30;99.90;;;;;;5093142;28;20048;-67
2021/07/14 01:15:22;;;;;;;54.70;39.78;;;19.30;99.90;;;;;;5093214;28;20036;-67
2021/07/14 01:17:53;;;;;;;56.33;39.78;;;19.30;99.90;;;;;;5092849;28;20469;-67
2021/07/14 01:20:45;;;;;;;62.10;40.75;;;19.30;99.90;;;;;;5092678;28;20043;-66
2021/07/14 01:23:35;;;;;;;65.60;41.35;;;19.30;99.90;;;;;;5085676;28;20067;-66
2021/07/14 01:26:06;;;;;;;65.90;43.25;;;19.20;99.90;;;;;;5073412;28;20425;-66
2021/07/14 01:28:35;;;;;;;64.18;41.58;;;19.10;99.90;;;;;;5073645;28;20040;-66
2021/07/14 01:31:02;;;;;;;67.72;43.28;;;19.10;99.90;;;;;;5092797;28;20092;-66
2021/07/14 01:33:32;;;;;;;65.70;41.03;;;19.10;99.90;;;;;;5090301;28;20040;-66
2021/07/14 01:36:03;;;;;;;63.13;40.75;;;19.10;99.90;;;;;;5091387;28;20040;-67
2021/07/14 01:38:30;;;;;;;43.80;32.35;;;19.10;99.90;;;;;;5092735;28;20032;-67
2021/07/14 01:41:00;;;;;;;60.13;39.17;;;19.10;99.90;;;;;;5090003;28;20047;-67
2021/07/14 01:43:30;;;;;;;51.70;35.58;;;19.20;99.90;;;;;;5091177;28;20075;-67
2021/07/14 01:45:56;;;;;;;55.95;37.28;;;19.20;99.90;;;;;;5092339;28;20065;-66
2021/07/14 01:48:25;;;;;;;55.55;35.25;;;19.20;99.90;;;;;;5092750;28;20062;-66
2021/07/14 01:50:51;;;;;;;53.67;35.67;;;19.20;99.90;;;;;;5092313;28;20377;-66
2021/07/14 01:53:19;;;;;;;67.78;39.22;;;19.20;99.90;;;;;;5092467;28;20036;-67
2021/07/14 01:55:47;;;;;;;52.05;34.65;;;19.10;99.90;;;;;;5101888;28;20417;-67
2021/07/14 01:58:15;;;;;;;57.45;35.88;;;19.20;99.90;;;;;;5090892;28;20040;-66
2021/07/14 02:00:42;;;;;;;60.80;37.17;;;19.20;99.90;;;;;;5090890;28;20374;-67
2021/07/14 02:05:36;;;;;;;56.20;34.67;;;19.10;99.90;;;;;;5092184;28;20035;-67
2021/07/14 02:08:04;;;;;;;58.42;37.30;;;19.10;99.90;;;;;;5091702;28;20101;-67
2021/07/14 02:10:31;;;;;;;61.50;37.25;;;19.10;99.90;;;;;;5090682;28;20083;-67
2021/07/14 02:12:58;;;;;;;59.92;35.72;;;19.10;99.90;;;;;;5091843;28;20047;-66
2021/07/14 02:15:26;;;;;;;62.75;36.15;;;19.10;99.90;;;;;;5091951;28;20040;-67
2021/07/14 02:18:08;;;;;;;70.15;37.35;;;19.10;99.90;;;;;;5090263;28;20028;-67
2021/07/14 02:20:35;;;;;;;61.20;35.45;;;19.10;99.90;;;;;;5091633;28;20093;-67
2021/07/14 02:23:04;;;;;;;67.88;36.03;;;19.10;99.90;;;;;;5091632;28;20115;-67
2021/07/14 02:25:30;;;;;;;76.75;37.30;;;19.10;99.90;;;;;;5091428;28;20392;-66
2021/07/14 02:27:56;;;;;;;88.88;39.60;;;19.10;99.90;;;;;;5091102;28;20068;-66
2021/07/14 02:30:23;;;;;;;93.60;39.92;;;19.00;99.90;;;;;;5085236;28;20059;-66
2021/07/14 02:32:59;;;;;;;86.15;36.80;;;18.90;99.90;;;;;;5074567;28;20047;-67
2021/07/14 02:35:29;;;;;;;76.43;34.10;;;18.90;99.90;;;;;;5081355;28;20462;-66
2021/07/14 02:38:11;;;;;;;76.50;33.75;;;19.00;99.90;;;;;;5077184;28;20059;-67
2021/07/14 02:41:15;;;;;;;67.93;35.10;;;19.00;99.90;;;;;;5091576;28;20128;-67
2021/07/14 02:43:47;;;;;;;65.30;33.92;;;19.00;99.90;;;;;;5070049;28;20683;-66
2021/07/14 02:46:17;;;;;;;80.72;37.47;;;18.90;99.90;;;;;;5091730;28;20601;-66
2021/07/14 02:48:45;;;;;;;55.50;30.88;;;18.80;99.90;;;;;;5091199;28;20531;-67
2021/07/14 02:51:14;;;;;;;62.03;34.35;;;18.90;99.90;;;;;;5089422;28;20062;-67
2021/07/14 02:53:46;;;;;;;79.53;36.90;;;18.90;99.90;;;;;;5091273;28;20040;-67
2021/07/14 02:56:18;;;;;;;77.45;35.08;;;18.80;99.90;;;;;;5091180;28;20363;-66
2021/07/14 02:58:47;;;;;;;;;;;18.80;99.90;;;;;;5091925;28;20035;-67
2021/07/14 03:01:14;;;;;;;57.22;32.13;;;18.80;99.90;;;;;;5091114;28;19969;-67
2021/07/14 03:03:41;;;;;;;72.45;33.63;;;18.80;99.90;;;;;;5091330;28;20474;-66
2021/07/14 03:06:09;;;;;;;60.22;33.03;;;18.70;99.90;;;;;;5089824;28;20059;-67
2021/07/14 03:08:35;;;;;;;53.20;30.88;;;18.70;99.90;;;;;;5087261;28;20048;-67
2021/07/14 03:11:02;;;;;;;61.95;31.95;;;18.80;99.90;;;;;;5077263;28;20608;-67
2021/07/14 03:13:32;;;;;;;65.65;34.75;;;18.80;99.90;;;;;;5090023;28;20051;-66
2021/07/14 03:15:58;;;;;;;52.25;31.27;;;18.80;99.90;;;;;;5090848;28;20478;-66
2021/07/14 03:18:27;;;;;;;53.97;30.23;;;18.80;99.90;;;;;;5091655;28;20032;-66
2021/07/14 03:20:56;;;;;;;54.92;29.45;;;18.80;99.90;;;;;;5095034;28;20051;-66
2021/07/14 03:23:23;;;;;;;60.50;32.55;;;18.70;99.90;;;;;;5095313;28;20047;-66
2021/07/14 03:25:51;;;;;;;61.28;31.90;;;18.70;99.90;;;;;;5095191;28;20039;-66
2021/07/14 03:28:18;;;;;;;62.05;33.33;;;18.70;99.90;;;;;;5093809;28;20529;-66
2021/07/14 03:30:45;;;;;;;46.25;28.80;;;18.70;99.90;;;;;;5095123;28;20066;-66
2021/07/14 03:33:10;;;;;;;61.17;33.13;;;18.80;99.90;;;;;;5093951;28;20047;-67
2021/07/14 03:35:37;;;;;;;56.60;31.10;;;18.80;99.90;;;;;;5090754;28;20032;-67
2021/07/14 03:38:05;;;;;;;48.30;30.35;;;18.70;99.90;;;;;;5081823;28;20764;-66
2021/07/14 03:40:32;;;;;;;48.08;31.05;;;18.70;99.90;;;;;;5093614;28;20543;-66
2021/07/14 03:42:59;;;;;;;42.67;27.88;;;18.80;99.90;;;;;;5093370;28;20032;-66
2021/07/14 03:45:27;;;;;;;61.75;34.20;;;18.80;99.90;;;;;;5094655;28;20750;-67
2021/07/14 03:47:54;;;;;;;58.35;32.40;;;18.80;99.90;;;;;;5094951;28;20040;-67
2021/07/14 03:50:21;;;;;;;56.22;33.17;;;18.80;99.90;;;;;;5094475;28;20439;-66
2021/07/14 03:52:48;;;;;;;73.47;36.78;;;18.70;99.90;;;;;;5094421;28;20111;-67
2021/07/14 03:55:15;;;;;;;66.95;37.25;;;18.70;99.90;;;;;;5093397;28;20040;-67
2021/07/14 03:57:43;;;;;;;61.67;34.97;;;18.70;99.90;;;;;;5094684;28;20039;-66
2021/07/14 04:00:10;;;;;;;69.47;37.03;;;18.70;99.90;;;;;;5083222;28;20131;-66
2021/07/14 04:02:43;;;;;;;57.92;35.47;;;18.70;99.90;;;;;;5077992;28;20032;-66
2021/07/14 04:05:09;;;;;;;69.35;39.78;;;18.70;99.90;;;;;;5093963;28;20038;-67
2021/07/14 04:07:37;;;;;;;79.05;40.95;;;18.60;99.90;;;;;;5101363;28;20043;-67
2021/07/14 04:10:04;;;;;;;70.00;40.22;;;18.60;99.90;;;;;;5093727;28;20434;-67
2021/07/14 04:12:30;;;;;;;72.45;40.60;;;18.60;99.90;;;;;;5093843;28;20496;-66
2021/07/14 04:14:56;;;;;;;65.13;38.53;;;18.60;99.90;;;;;;5093873;28;20036;-66
2021/07/14 04:17:21;;;;;;;70.25;41.03;;;18.60;99.90;;;;;;5093939;28;20054;-66
2021/07/14 04:19:47;;;;;;;70.95;41.22;;;18.60;99.90;;;;;;5092691;28;20677;-67
2021/07/14 04:22:13;;;;;;;71.75;41.15;;;18.60;99.90;;;;;;5094243;28;20397;-66
2021/07/14 04:24:40;;;;;;;73.35;40.78;;;18.60;99.90;;;;;;5100109;22;20040;-64
2021/07/14 04:27:07;;;;;;;64.05;38.20;;;18.60;99.90;;;;;;5073885;28;20082;-64
2021/07/14 04:29:33;;;;;;;70.22;42.58;;;18.70;99.90;;;;;;5056739;28;20059;-64
2021/07/14 04:31:59;;;;;;;56.22;37.47;;;18.70;99.90;;;;;;5068298;28;20767;-64
2021/07/14 04:34:24;;;;;;;64.32;40.25;;;18.70;99.90;;;;;;5073640;28;20040;-64
2021/07/14 04:36:50;;;;;;;62.88;41.00;;;18.80;99.90;;;;;;5071639;28;20071;-64
2021/07/14 04:39:16;;;;;;;57.65;39.70;;;18.80;99.90;;;;;;5061296;28;20036;-64
2021/07/14 04:41:42;;;;;;;57.92;39.40;;;18.90;99.90;;;;;;5072411;28;20036;-63
2021/07/14 04:44:10;;;;;;;64.07;42.53;;;18.90;99.90;;;;;;5071576;28;20052;-64
2021/07/14 04:46:37;;;;;;;49.67;37.20;;;18.90;99.90;;;;;;5072728;28;20037;-63
2021/07/14 04:49:03;;;;;;;60.58;41.35;;;18.90;99.90;;;;;;5071407;28;20064;-64
2021/07/14 04:51:29;;;;;;;57.25;41.22;;;18.90;99.90;;;;;;5073130;28;20075;-64
2021/07/14 04:53:55;;;;;;;50.13;37.92;;;18.90;99.90;;;;;;5073194;28;20730;-64
2021/07/14 04:56:21;;;;;;;50.80;38.05;;;19.00;99.90;;;;;;5068143;28;20048;-64
2021/07/14 04:58:47;;;;;;;55.78;39.97;;;19.00;99.90;;;;;;5057944;28;20052;-64
2021/07/14 05:01:14;;;;;;;55.63;39.97;;;19.00;99.90;;;;;;5073077;28;20056;-64
2021/07/14 05:03:47;;;;;;;50.08;38.40;;;19.00;99.90;;;;;;5071940;28;20052;-63
2021/07/14 05:06:16;;;;;;;45.90;34.67;;;19.00;99.90;;;;;;5073047;28;20072;-63
2021/07/14 05:08:43;;;;;;;49.10;38.28;;;19.00;99.90;;;;;;5072758;28;20037;-64
2021/07/14 05:11:09;;;;;;;47.03;36.30;;;19.00;99.90;;;;;;5072490;28;20044;-63
2021/07/14 05:13:35;;;;;;;47.60;37.13;;;19.10;99.90;;;;;;5072998;28;20036;-64
2021/07/14 05:16:01;;;;;;;47.95;39.38;;;19.10;99.90;;;;;;5070218;28;20505;-64
2021/07/14 05:18:27;;;;;;;52.15;39.85;;;19.20;99.90;;;;;;5057601;28;20075;-64
2021/07/14 05:20:52;;;;;;;40.65;33.05;;;19.20;99.90;;;;;;5060104;28;20085;-64
2021/07/14 05:23:18;;;;;;;47.88;37.60;;;19.20;99.90;;;;;;5066436;28;20048;-64
2021/07/14 05:25:44;;;;;;;40.63;34.05;;;19.30;99.90;;;;;;5066238;28;20093;-64
2021/07/14 05:28:10;;;;;;;39.08;33.55;;;19.40;99.90;;;;;;5062682;28;20043;-64
2021/07/14 05:30:39;;;;;;;38.67;33.67;;;19.40;99.90;;;;;;5069969;28;20066;-64
2021/07/14 05:33:09;;;;;;;40.80;34.03;;;19.40;99.90;;;;;;5067722;28;20423;-64
2021/07/14 05:35:35;;;;;;;40.92;33.90;;;19.40;99.90;;;;;;5069292;28;20044;-64
2021/07/14 05:38:01;;;;;;;42.13;34.50;;;19.50;99.90;;;;;;5068318;28;20040;-64
2021/07/14 05:40:27;;;;;;;34.70;30.95;;;19.50;99.90;;;;;;5063566;28;20114;-64
2021/07/14 05:42:52;;;;;;;33.25;29.65;;;19.50;99.90;;;;;;5072458;28;20064;-64
2021/07/14 05:45:18;;;;;;;33.92;30.33;;;19.60;99.90;;;;;;5070837;28;20032;-64
2021/07/14 05:47:45;;;;;;;35.67;30.70;;;19.70;99.90;;;;;;5071785;28;20116;-64
2021/07/14 05:50:11;;;;;;;35.85;30.75;;;19.80;99.90;;;;;;5062023;28;20644;-64
2021/07/14 05:52:37;;;;;;;32.65;27.20;;;19.90;99.90;;;;;;5056827;28;20049;-64
2021/07/14 05:55:04;;;;;;;29.85;26.73;;;20.00;99.90;;;;;;5073115;28;20063;-64
2021/07/14 05:57:30;;;;;;;30.98;26.55;;;20.10;99.90;;;;;;5063103;28;20047;-64
2021/07/14 05:59:56;;;;;;;28.95;25.65;;;20.30;99.90;;;;;;5058112;28;20033;-64
2021/07/14 06:02:21;;;;;;;27.75;24.55;;;20.40;99.90;;;;;;5070987;28;20048;-64
2021/07/14 06:04:47;;;;;;;26.30;23.55;;;20.40;99.90;;;;;;5068952;28;20078;-63
2021/07/14 06:07:13;;;;;;;27.10;21.92;;;20.40;99.90;;;;;;5067670;28;20094;-63
2021/07/14 06:09:39;;;;;;;25.20;22.17;;;20.50;99.90;;;;;;5071745;28;20044;-63
2021/07/14 06:12:06;;;;;;;24.98;21.60;;;20.50;99.90;;;;;;5070483;28;20044;-63
2021/07/14 06:14:32;;;;;;;23.67;21.17;;;20.50;99.90;;;;;;5069241;28;20504;-63
2021/07/14 06:16:57;;;;;;;21.65;19.35;;;20.50;99.90;;;;;;5071466;28;20127;-63
2021/07/14 06:19:25;;;;;;;23.73;20.67;;;20.60;99.90;;;;;;5067755;28;20057;-63
2021/07/14 06:21:51;;;;;;;21.13;19.05;;;20.60;99.90;;;;;;5068725;28;20040;-63
2021/07/14 06:24:17;;;;;;;21.00;18.88;;;20.60;99.90;;;;;;5060271;28;20749;-63
2021/07/14 06:26:42;;;;;;;21.17;18.38;;;20.70;99.90;;;;;;5051300;28;20132;-62
2021/07/14 06:29:09;;;;;;;18.88;17.02;;;20.70;99.90;;;;;;5058739;28;20116;-66
2021/07/14 06:31:34;;;;;;;94.00;85.80;;;20.70;99.90;;;;;;5064603;28;20032;-61
2021/07/14 06:34:00;;;;;;;20.25;18.17;;;20.60;99.90;;;;;;5063381;28;20102;-61
2021/07/14 06:36:26;;;;;;;20.20;18.02;;;20.80;99.90;;;;;;5065353;28;20457;-61
2021/07/14 06:38:51;;;;;;;19.17;17.20;;;20.70;99.90;;;;;;5068917;28;20040;-61
2021/07/14 06:41:18;;;;;;;19.30;17.20;;;20.80;99.90;;;;;;5070393;28;20040;-61
2021/07/14 06:43:46;;;;;;;18.63;16.70;;;20.60;99.90;;;;;;5085735;28;20058;-61
2021/07/14 06:46:15;;;;;;;17.17;15.38;;;20.90;99.90;;;;;;5072122;28;20064;-61
2021/07/14 06:48:40;;;;;;;16.52;14.90;;;21.00;99.90;;;;;;5066697;28;20124;-61
2021/07/14 06:51:07;;;;;;;18.10;16.27;;;21.20;99.90;;;;;;5067764;28;20123;-61
2021/07/14 06:53:33;;;;;;;17.15;14.68;;;21.20;99.90;;;;;;5055131;28;20044;-61
2021/07/14 06:55:59;;;;;;;18.40;16.63;;;21.20;99.90;;;;;;5059711;28;20740;-61
2021/07/14 06:58:26;;;;;;;17.17;15.30;;;21.20;99.90;;;;;;5067590;28;20079;-62
2021/07/14 07:00:52;;;;;;;16.35;14.70;;;21.30;99.90;;;;;;5063423;28;20094;-61
2021/07/14 07:03:18;;;;;;;16.02;14.27;;;21.40;99.90;;;;;;5062573;28;20128;-62
2021/07/14 07:05:44;;;;;;;15.93;14.50;;;21.40;99.90;;;;;;5064877;28;20139;-62
2021/07/14 07:08:10;;;;;;;17.67;15.05;;;21.40;99.90;;;;;;5082694;28;20094;-62
2021/07/14 07:10:36;;;;;;;15.82;14.32;;;21.30;99.90;;;;;;5072184;28;20048;-61
2021/07/14 07:13:02;;;;;;;16.02;14.32;;;21.40;99.90;;;;;;5068727;28;20086;-62
2021/07/14 07:15:27;;;;;;;15.15;13.05;;;21.50;99.90;;;;;;5070285;28;20040;-61
2021/07/14 07:17:53;;;;;;;16.80;15.13;;;21.50;99.90;;;;;;5069732;28;20474;-61
2021/07/14 07:20:18;;;;;;;16.73;15.10;;;21.30;99.90;;;;;;5069154;28;20040;-62
2021/07/14 07:22:44;;;;;;;17.10;15.27;;;21.30;99.90;;;;;;5069240;28;20044;-62
2021/07/14 07:25:12;;;;;;;16.90;15.27;;;21.30;99.90;;;;;;5069958;28;20052;-61
2021/07/14 07:27:39;;;;;;;17.13;15.43;;;21.30;99.90;;;;;;5067782;28;20044;-61
2021/07/14 07:30:06;;;;;;;17.55;15.85;;;21.40;99.90;;;;;;5062973;28;20060;-61
2021/07/14 07:32:32;;;;;;;16.52;14.90;;;21.40;99.90;;;;;;5061987;28;20037;-61
2021/07/14 07:34:58;;;;;;;16.67;15.02;;;21.50;99.90;;;;;;5062440;28;20032;-62
2021/07/14 07:37:23;;;;;;;15.23;13.73;;;21.50;99.90;;;;;;5070498;28;20037;-62
2021/07/14 07:39:50;;;;;;;16.08;14.32;;;21.60;99.90;;;;;;5062626;28;20095;-62
2021/07/14 07:42:16;;;;;;;16.38;14.68;;;21.70;99.90;;;;;;5069197;28;20491;-62
2021/07/14 07:44:42;;;;;;;15.93;14.32;;;21.70;99.90;;;;;;5069981;28;20036;-61
2021/07/14 07:47:08;;;;;;;14.80;13.27;;;21.70;99.90;;;;;;5068713;28;20405;-62
2021/07/14 07:49:35;;;;;;;15.38;13.98;;;21.70;99.90;;;;;;5069889;28;20040;-61
2021/07/14 07:52:02;;;;;;;15.90;14.30;;;21.80;99.90;;;;;;5067709;28;20131;-62
2021/07/14 07:54:29;;;;;;;17.08;15.38;;;22.00;99.90;;;;;;5064473;28;20028;-61
2021/07/14 07:56:54;;;;;;;16.95;15.13;;;22.10;99.90;;;;;;5066302;28;20037;-62
2021/07/14 07:59:21;;;;;;;17.67;14.50;;;22.10;99.90;;;;;;5060988;28;20048;-62
2021/07/14 08:01:46;;;;;;;19.85;14.80;;;22.30;99.90;;;;;;5077651;28;20032;-62
2021/07/14 08:04:12;;;;;;;15.35;13.85;;;22.40;99.90;;;;;;5066207;28;20035;-62
2021/07/14 08:06:38;;;;;;;16.83;15.20;;;22.60;99.90;;;;;;5085865;28;20086;-62
2021/07/14 08:09:05;;;;;;;16.30;14.73;;;22.60;99.90;;;;;;5073273;28;20040;-62
2021/07/14 08:11:31;;;;;;;15.88;14.40;;;22.60;99.90;;;;;;5060828;28;20052;-61
2021/07/14 08:13:59;;;;;;;18.38;16.48;;;22.70;99.90;;;;;;5063544;28;20045;-62
2021/07/14 08:16:25;;;;;;;17.35;15.75;;;22.50;99.90;;;;;;5062107;28;20115;-61
2021/07/14 08:18:51;;;;;;;16.50;14.90;;;22.60;99.90;;;;;;5074092;28;20434;-61
2021/07/14 08:21:18;;;;;;;16.88;15.05;;;22.70;99.90;;;;;;5073166;28;20036;-62
2021/07/14 08:23:45;;;;;;;18.63;16.75;;;22.70;99.90;;;;;;5073780;28;20040;-62
2021/07/14 08:26:12;;;;;;;19.20;17.30;;;22.70;99.90;;;;;;5073336;28;20084;-62
2021/07/14 08:28:39;;;;;;;19.17;16.73;;;22.60;99.90;;;;;;5073779;28;20044;-62
2021/07/14 08:31:04;;;;;;;18.00;16.35;;;22.70;99.90;;;;;;5063371;28;20148;-62
2021/07/14 08:33:30;;;;;;;17.83;16.17;;;22.80;99.90;;;;;;5072208;28;20139;-62
2021/07/14 08:35:56;;;;;;;18.25;16.63;;;22.80;99.90;;;;;;5070061;28;20037;-62
2021/07/14 08:38:22;;;;;;;17.73;16.00;;;22.90;99.90;;;;;;5073293;28;20156;-62
2021/07/14 08:40:50;;;;;;;17.75;16.15;;;22.90;99.90;;;;;;5068715;28;20124;-62
2021/07/14 08:43:18;;;;;;;16.23;14.70;;;22.90;99.90;;;;;;5079828;28;20516;-62
2021/07/14 08:45:45;;;;;;;20.75;18.73;;;23.00;99.90;;;;;;5073152;28;20036;-62
2021/07/14 08:48:13;;;;;;;17.38;15.48;;;22.80;99.90;;;;;;5079589;28;20072;-62
2021/07/14 08:50:43;;;;;;;18.55;16.65;;;23.00;99.90;;;;;;5068991;28;20511;-62
2021/07/14 08:53:16;;;;;;;18.65;16.88;;;23.00;99.90;;;;;;5072667;28;20113;-62
2021/07/14 08:55:43;;;;;;;18.40;16.50;;;23.10;99.90;;;;;;5071765;28;20041;-62
2021/07/14 08:58:14;;;;;;;19.98;17.40;;;22.90;99.90;;;;;;5068872;28;20115;-62
2021/07/14 09:00:40;;;;;;;;;;;23.00;99.90;;;;;;5085386;28;20071;-62
2021/07/14 09:03:06;;;;;;;16.80;15.30;;;23.20;99.90;;;;;;5088922;28;20312;-60
2021/07/14 09:05:32;;;;;;;16.92;15.30;;;23.40;99.90;;;;;;5072232;28;20036;-60
2021/07/14 09:07:58;;;;;;;17.55;15.73;;;23.60;99.90;;;;;;5073166;28;20397;-60
2021/07/14 09:10:24;;;;;;;17.52;15.75;;;23.70;99.90;;;;;;5070959;28;20041;-60
2021/07/14 09:12:55;;;;;;;18.80;16.95;;;23.80;99.90;;;;;;5072957;28;20086;-60
2021/07/14 09:15:21;;;;;;;19.83;17.98;;;23.70;99.90;;;;;;5071377;28;20040;-60
2021/07/14 09:17:49;;;;;;;19.08;17.25;;;23.40;99.90;;;;;;5071525;28;20470;-60
2021/07/14 09:20:47;;;;;;;18.70;16.95;;;23.50;99.90;;;;;;5055716;28;20104;-60
2021/07/14 09:23:17;;;;;;;18.92;17.15;;;23.50;99.90;;;;;;5049444;28;20407;-60
2021/07/14 09:25:48;;;;;;;18.52;16.50;;;23.50;99.90;;;;;;5071874;28;20083;-59
2021/07/14 09:28:18;;;;;;;20.73;18.73;;;23.50;99.90;;;;;;5072858;28;20040;-60
2021/07/14 09:30:46;;;;;;;20.48;18.48;;;23.30;99.90;;;;;;5070480;28;20044;-60
2021/07/14 09:33:14;;;;;;;18.90;17.20;;;23.30;99.90;;;;;;5067985;28;20409;-60
2021/07/14 09:35:42;;;;;;;21.25;19.08;;;23.40;99.90;;;;;;5057122;28;20050;-60
2021/07/14 09:38:13;;;;;;;23.17;21.25;;;23.40;99.90;;;;;;5053464;28;20121;-60
2021/07/14 09:40:41;;;;;;;19.70;17.88;;;23.40;99.90;;;;;;5064843;28;20058;-60
2021/07/14 09:43:14;;;;;;;22.35;20.15;;;23.40;99.90;;;;;;5070771;28;20041;-60
2021/07/14 09:45:45;;;;;;;23.13;20.77;;;23.20;99.90;;;;;;5067222;28;20078;-60
2021/07/14 09:48:15;;;;;;;20.75;18.85;;;23.20;99.90;;;;;;5069368;28;20033;-60
2021/07/14 09:50:44;;;;;;;22.33;20.05;;;23.30;99.90;;;;;;5075562;28;20047;-60
2021/07/14 09:53:12;;;;;;;22.67;20.45;;;23.40;99.90;;;;;;5068863;28;20028;-60
2021/07/14 09:55:39;;;;;;;21.02;18.88;;;23.50;99.90;;;;;;5067654;28;20543;-60
2021/07/14 09:58:14;;;;;;;19.98;18.13;;;23.50;99.90;;;;;;5068120;28;20778;-60
2021/07/14 10:00:42;;;;;;;21.10;19.10;;;23.50;99.90;;;;;;5065210;28;20072;-60
2021/07/14 10:03:08;;;;;;;21.67;19.38;;;23.60;99.90;;;;;;5080787;28;20489;-60
2021/07/14 10:05:34;;;;;;;18.50;16.83;;;23.50;99.90;;;;;;5065402;28;20042;-60
2021/07/14 10:08:17;;;;;;;20.75;18.65;;;23.60;99.90;;;;;;5068438;28;20033;-60
2021/07/14 10:10:43;;;;;;;21.15;19.13;;;23.80;99.90;;;;;;5066709;28;20082;-60
2021/07/14 10:13:10;;;;;;;17.92;16.40;;;24.00;99.90;;;;;;5064690;28;20033;-60
2021/07/14 10:15:37;;;;;;;18.20;16.05;;;24.20;99.90;;;;;;5065140;28;20094;-60
2021/07/14 10:18:03;;;;;;;17.90;16.15;;;24.40;99.90;;;;;;5064307;28;20036;-60
2021/07/14 10:20:37;;;;;;;16.45;14.73;;;24.60;99.90;;;;;;5066831;28;20090;-60
2021/07/14 10:23:04;;;;;;;17.45;15.75;;;24.70;99.90;;;;;;5070692;28;20485;-62
2021/07/14 10:25:32;;;;;;;17.05;15.27;;;24.60;99.90;;;;;;5062996;28;20117;-60
2021/07/14 10:28:00;;;;;;;18.00;16.00;;;24.70;99.90;;;;;;5067852;28;20032;-60
2021/07/14 10:30:26;;;;;;;17.27;15.57;;;24.80;99.90;;;;;;5069022;28;20047;-60
2021/07/14 10:32:53;;;;;;;16.13;14.25;;;24.80;99.90;;;;;;5065958;28;20449;-60
2021/07/14 10:35:28;;;;;;;17.00;15.48;;;24.80;99.90;;;;;;5061081;28;20577;-60
2021/07/14 10:37:58;;;;;;;15.82;14.15;;;24.70;99.90;;;;;;5066564;28;20066;-60
2021/07/14 10:40:24;;;;;;;15.55;13.95;;;24.80;99.90;;;;;;5071251;28;20071;-60
2021/07/14 10:42:51;;;;;;;16.98;15.27;;;24.70;99.90;;;;;;5087241;28;20036;-60
2021/07/14 10:45:18;;;;;;;18.05;16.23;;;24.70;99.90;;;;;;5071429;28;20068;-60
2021/07/14 10:47:46;;;;;;;16.63;14.93;;;24.60;99.90;;;;;;5063746;28;20119;-60
2021/07/14 10:50:14;;;;;;;17.63;15.82;;;24.90;99.90;;;;;;5066441;28;20087;-60
2021/07/14 10:52:40;;;;;;;16.60;14.90;;;24.90;99.90;;;;;;5050744;28;20083;-60
2021/07/14 10:55:11;;;;;;;16.38;14.63;;;25.10;99.90;;;;;;5063252;28;20036;-60
2021/07/14 10:57:38;;;;;;;16.27;14.80;;;25.40;99.90;;;;;;5086492;28;20746;-60
2021/07/14 11:00:09;;;;;;;16.33;14.52;;;25.60;99.90;;;;;;5068450;28;20029;-60
2021/07/14 11:02:39;;;;;;;16.55;15.15;;;25.80;99.90;;;;;;5050400;28;20037;-60
2021/07/14 11:05:06;;;;;;;16.17;14.48;;;25.90;99.90;;;;;;5057811;28;20039;-60
2021/07/14 11:07:50;;;;;;;16.83;14.98;;;26.00;99.90;;;;;;5052064;28;20044;-60
2021/07/14 11:10:31;;;;;;;15.85;14.35;;;26.30;99.90;;;;;;5069232;28;20113;-60
2021/07/14 11:13:40;;;;;;;16.67;14.38;;;26.30;99.90;;;;;;5070267;28;20483;-60
2021/07/14 11:16:31;;;;;;;17.25;15.48;;;25.80;99.90;;;;;;5071039;28;20090;-60
2021/07/14 11:19:07;;;;;;;16.75;14.15;;;25.60;99.90;;;;;;5068203;28;20688;-60
2021/07/14 11:21:48;;;;;;;16.45;14.75;;;25.80;99.90;;;;;;5069063;28;20039;-61
2021/07/14 11:24:53;;;;;;;18.87;15.67;;;25.80;99.90;;;;;;5071769;28;20045;-60
2021/07/14 11:27:18;;;;;;;17.77;15.98;;;25.60;99.90;;;;;;5069836;28;20075;-60
2021/07/14 11:29:48;;;;;;;17.20;15.32;;;25.40;99.90;;;;;;5068729;28;20070;-60
2021/07/14 11:32:35;;;;;;;19.77;16.80;;;25.40;99.90;;;;;;5069361;28;20044;-60
2021/07/14 11:35:06;;;;;;;18.67;16.73;;;24.60;99.90;;;;;;5066805;28;20604;-60
2021/07/14 11:37:41;;;;;;;18.45;15.98;;;24.60;99.90;;;;;;5069128;28;20044;-60
2021/07/14 11:40:22;;;;;;;17.50;15.00;;;24.60;99.90;;;;;;5071741;28;20114;-60
2021/07/14 11:43:00;;;;;;;16.27;14.75;;;24.80;99.90;;;;;;5069202;28;20048;-60
2021/07/14 11:45:26;;;;;;;18.40;16.35;;;25.00;99.90;;;;;;5071427;28;20481;-60
2021/07/14 11:48:06;;;;;;;16.83;14.70;;;24.90;99.90;;;;;;5059552;28;20112;-60
2021/07/14 11:50:47;;;;;;;16.80;14.48;;;24.80;99.90;;;;;;5054617;28;20049;-60
2021/07/14 11:53:31;;;;;;;20.13;16.47;;;24.90;99.90;;;;;;5076245;28;20069;-60
2021/07/14 11:56:06;;;;;;;18.70;16.05;;;25.10;99.90;;;;;;5073150;28;20309;-60
2021/07/14 11:58:54;;;;;;;16.58;14.88;;;25.00;99.90;;;;;;5074479;28;20036;-60
2021/07/14 12:01:20;;;;;;;15.88;14.18;;;25.30;99.90;;;;;;5064711;28;20029;-60
2021/07/14 12:04:01;;;;;;;18.15;14.07;;;25.50;99.90;;;;;;5054360;28;20043;-60
2021/07/14 12:06:38;;;;;;;14.40;12.90;;;25.60;99.90;;;;;;5082611;28;20119;-60
2021/07/14 12:09:13;;;;;;;16.40;14.70;;;25.80;99.90;;;;;;5074140;28;20068;-60
2021/07/14 12:11:55;;;;;;;17.40;15.57;;;25.60;99.90;;;;;;5070074;28;20470;-60
2021/07/14 12:14:25;;;;;;;15.88;14.27;;;25.40;99.90;;;;;;5072890;28;20036;-60
2021/07/14 12:17:03;;;;;;;16.48;14.13;;;25.20;99.90;;;;;;5062733;28;20068;-60
2021/07/14 12:19:35;;;;;;;16.52;14.20;;;25.20;99.90;;;;;;5054238;28;20111;-59
2021/07/14 12:22:14;;;;;;;20.88;14.93;;;25.30;99.90;;;;;;5070658;28;20040;-60
2021/07/14 12:24:51;;;;;;;18.27;14.63;;;24.80;99.90;;;;;;5073619;28;20067;-60
2021/07/14 12:27:38;;;;;;;14.88;13.48;;;24.90;99.90;;;;;;5071605;28;20075;-59
2021/07/14 12:30:16;;;;;;;15.48;12.93;;;24.90;99.90;;;;;;5069700;28;20032;-60
2021/07/14 12:32:42;;;;;;;16.50;13.40;;;25.00;99.90;;;;;;5067973;28;20085;-60
2021/07/14 12:35:14;;;;;;;13.27;11.60;;;25.10;99.90;;;;;;5072545;28;20032;-60
2021/07/14 12:37:46;;;;;;;12.98;11.43;;;25.10;99.90;;;;;;5071100;28;20032;-60
2021/07/14 12:40:21;;;;;;;13.45;12.07;;;24.90;99.90;;;;;;5053079;28;20075;-60
2021/07/14 12:42:47;;;;;;;15.57;11.60;;;25.00;99.90;;;;;;5062793;28;20066;-60
2021/07/14 12:45:33;;;;;;;13.45;11.27;;;24.90;99.90;;;;;;5070487;28;20090;-60
2021/07/14 12:48:07;;;;;;;12.32;11.13;;;25.20;99.90;;;;;;5068647;28;20082;-60